TAF Text Data
IDs:
Format:
Raw Decoded Include METAR

Data at: 0301 UTC 23 Sep 2018

KPHX 230251Z 16006KT 10SM CLR 35/08 A2980 RMK AO2 SLP070 T03500078 53003

KPHX 230208Z 2302/2406 17006KT P6SM FEW100
  FM230600 10005KT P6SM SKC
  FM231600 10014KT P6SM SKC
  FM232000 12005KT P6SM FEW110
  FM240000 27004KT P6SM FEW120